Time;durP1;ratioP1;P1;durP2;ratioP2;P2;SDS_P1;SDS_P2;PMS_P1;PMS_P2;Temp;Humidity;BMP_temperature;BMP_pressure;BME280_temperature;BME280_humidity;BME280_pressure;Samples;Min_cycle;Max_cycle;Signal;HPM_P1;HPM_P2
2022/10/11 00:01:55;;;;;;;;;;;;;;;20.77;49.30;102022.84;5143144;27;19924;-37
2022/10/11 00:04:20;;;;;;;;;;;;;;;20.77;49.18;102025.63;5137521;27;19956;-36
2022/10/11 00:06:46;;;;;;;;;;;;;;;20.77;49.14;102028.41;5140780;27;20937;-36
2022/10/11 00:09:12;;;;;;;;;;;;;;;20.78;49.14;102026.47;5138921;27;19939;-36
2022/10/11 00:11:37;;;;;;;;;;;;;;;20.76;49.13;102026.69;5136868;27;19931;-36
2022/10/11 00:14:03;;;;;;;;;;;;;;;20.76;49.20;102032.25;5124831;27;19923;-36
2022/10/11 00:16:29;;;;;;;;;;;;;;;20.77;49.28;102031.16;5140215;27;19923;-36
2022/10/11 00:18:54;;;;;;;;;;;;;;;20.77;49.33;102030.34;5140780;27;19932;-36
2022/10/11 00:21:20;;;;;;;;;;;;;;;20.77;49.17;102038.63;5138581;27;19931;-36
2022/10/11 00:23:46;;;;;;;;;;;;;;;20.76;49.18;102037.78;5138408;27;19966;-37
2022/10/11 00:26:11;;;;;;;;;;;;;;;20.76;49.11;102039.72;5126602;27;19937;-36
2022/10/11 00:28:37;;;;;;;;;;;;;;;20.77;49.21;102036.69;5143524;27;19931;-37
2022/10/11 00:31:05;;;;;;;;;;;;;;;20.78;49.16;102051.38;5139495;27;20328;-36
2022/10/11 00:33:31;;;;;;;;;;;;;;;20.76;49.17;102040.53;5125171;27;20027;-36
2022/10/11 00:35:57;;;;;;;;;;;;;;;20.77;49.33;102047.78;5140525;27;19927;-36
2022/10/11 00:38:23;;;;;;;;;;;;;;;20.77;49.26;102047.78;5139553;27;20038;-36
2022/10/11 00:40:49;;;;;;;;;;;;;;;20.77;49.35;102046.94;5137531;27;19954;-36
2022/10/11 00:43:16;;;;;;;;;;;;;;;20.78;49.28;102048.59;5135983;27;19930;-36
2022/10/11 00:45:46;;;;;;;;;;;;;;;20.77;49.11;102041.41;5141435;27;20014;-37
2022/10/11 00:48:13;;;;;;;;;;;;;;;20.76;49.14;102048.84;5121093;27;20334;-36
2022/10/11 00:50:39;;;;;;;;;;;;;;;20.77;49.17;102046.94;5137901;27;20010;-36
2022/10/11 00:53:06;;;;;;;;;;;;;;;20.77;49.28;102046.94;5144298;27;19932;-36
2022/10/11 00:55:33;;;;;;;;;;;;;;;20.77;49.19;102045.00;5124342;27;19966;-36
2022/10/11 00:57:59;;;;;;;;;;;;;;;20.77;49.13;102053.31;5139313;27;19930;-36
2022/10/11 01:00:25;;;;;;;;;;;;;;;20.77;49.16;102050.53;5120993;27;19923;-36
2022/10/11 01:02:50;;;;;;;;;;;;;;;20.77;49.25;102052.47;5137754;27;20154;-36
2022/10/11 01:05:17;;;;;;;;;;;;;;;20.76;49.20;102054.38;5138117;27;19939;-36
2022/10/11 01:07:55;;;;;;;;;;;;;;;20.76;49.12;102059.91;5126041;27;19968;-37
2022/10/11 01:10:20;;;;;;;;;;;;;;;20.77;49.12;102061.63;5139539;27;19927;-37
2022/10/11 01:12:52;;;;;;;;;;;;;;;20.77;49.19;102060.78;5138100;27;19927;-36
2022/10/11 01:15:20;;;;;;;;;;;;;;;20.77;49.31;102052.47;5135142;27;19988;-36
2022/10/11 01:17:50;;;;;;;;;;;;;;;20.77;49.10;102060.78;5139428;27;20053;-37
2022/10/11 01:20:26;;;;;;;;;;;;;;;20.77;49.09;102067.16;5120987;27;19977;-36
2022/10/11 01:22:58;;;;;;;;;;;;;;;20.77;49.12;102064.38;5119282;27;19962;-37
2022/10/11 01:25:31;;;;;;;;;;;;;;;20.77;49.28;102063.56;5144787;27;20423;-36
2022/10/11 01:28:17;;;;;;;;;;;;;;;20.77;49.34;102067.16;5141426;27;19965;-37
2022/10/11 01:30:42;;;;;;;;;;;;;;;20.77;49.07;102064.38;5125819;27;19927;-37
2022/10/11 01:33:11;;;;;;;;;;;;;;;20.76;49.22;102068.22;5139946;27;19950;-36
2022/10/11 01:35:45;;;;;;;;;;;;;;;20.77;49.17;102067.16;5141497;27;20030;-37
2022/10/11 01:38:14;;;;;;;;;;;;;;;20.78;49.20;102059.69;5121433;27;19965;-37
2022/10/11 01:40:41;;;;;;;;;;;;;;;20.77;49.28;102072.69;5137392;27;20017;-37
2022/10/11 01:43:06;;;;;;;;;;;;;;;20.77;49.28;102063.56;5140522;27;20010;-36
2022/10/11 01:45:32;;;;;;;;;;;;;;;20.76;49.12;102072.94;5142649;27;20371;-36
2022/10/11 01:48:06;;;;;;;;;;;;;;;20.77;49.22;102066.31;5136876;27;19928;-37
2022/10/11 01:50:42;;;;;;;;;;;;;;;20.77;49.20;102064.38;5119107;27;20030;-36
2022/10/11 01:53:27;;;;;;;;;;;;;;;20.78;49.17;102076.28;5117584;27;19962;-36
2022/10/11 01:55:54;;;;;;;;;;;;;;;20.77;49.17;102069.09;5123147;27;19963;-36
2022/10/11 01:58:24;;;;;;;;;;;;;;;20.77;49.33;102078.22;5118291;27;20389;-37
2022/10/11 02:00:53;;;;;;;;;;;;;;;20.77;49.14;102072.69;5136448;27;19966;-36
2022/10/11 02:03:22;;;;;;;;;;;;;;;20.77;49.19;102072.69;5128439;28;20049;-36
2022/10/11 02:05:50;;;;;;;;;;;;;;;20.76;49.12;102071.00;5139407;27;20006;-37
2022/10/11 02:10:57;;;;;;;;;;;;;;;20.77;49.11;102069.91;5168382;27;20411;-34
2022/10/11 02:13:25;;;;;;;;;;;;;;;20.76;49.26;102071.00;5164926;27;19923;-34
2022/10/11 02:15:50;;;;;;;;;;;;;;;20.77;49.15;102063.56;5172546;27;19958;-34
2022/10/11 02:18:17;;;;;;;;;;;;;;;20.77;49.14;102072.69;5172475;27;19934;-34
2022/10/11 02:20:43;;;;;;;;;;;;;;;20.77;49.27;102077.41;5154666;27;19970;-37
2022/10/11 02:23:10;;;;;;;;;;;;;;;20.78;49.13;102084.59;5171650;27;19930;-36
2022/10/11 02:25:35;;;;;;;;;;;;;;;20.76;49.28;102076.53;5160203;27;20389;-36
2022/10/11 02:28:01;;;;;;;;;;;;;;;20.77;49.14;102080.16;5174944;27;19931;-36
2022/10/11 02:30:27;;;;;;;;;;;;;;;20.77;49.12;102078.22;5173909;27;19966;-37
2022/10/11 02:32:53;;;;;;;;;;;;;;;20.77;49.05;102074.63;5178412;27;19923;-37
2022/10/11 02:35:19;;;;;;;;;;;;;;;20.76;49.23;102082.06;5152802;27;19931;-36
2022/10/11 02:37:53;;;;;;;;;;;;;;;20.76;49.04;102081.25;5150073;27;20005;-37
2022/10/11 02:40:20;;;;;;;;;;;;;;;20.77;49.23;102082.94;5154443;27;20009;-37
2022/10/11 02:42:48;;;;;;;;;;;;;;;20.77;49.28;102082.94;5168951;27;20022;-36
2022/10/11 02:45:16;;;;;;;;;;;;;;;20.77;49.14;102082.94;5167063;27;20655;-37
2022/10/11 02:47:41;;;;;;;;;;;;;;;20.77;48.92;102088.47;5148120;27;19954;-36
2022/10/11 02:50:07;;;;;;;;;;;;;;;20.76;49.23;102089.53;5175619;27;19937;-37
2022/10/11 02:52:32;;;;;;;;;;;;;;;20.77;49.12;102094.00;5174207;27;20208;-36
2022/10/11 02:54:58;;;;;;;;;;;;;;;20.77;49.09;102088.47;5167294;27;19927;-36
2022/10/11 02:57:23;;;;;;;;;;;;;;;20.77;49.05;102100.38;5154505;27;19931;-36
2022/10/11 02:59:49;;;;;;;;;;;;;;;20.77;49.12;102096.78;5157149;27;19923;-39
2022/10/11 03:02:15;;;;;;;;;;;;;;;20.77;49.20;102110.63;5151036;27;20448;-39
2022/10/11 03:04:40;;;;;;;;;;;;;;;20.77;49.21;102111.44;5151831;27;19923;-40
2022/10/11 03:07:06;;;;;;;;;;;;;;;20.78;49.21;102109.50;5158891;27;20302;-39
2022/10/11 03:09:31;;;;;;;;;;;;;;;20.77;49.12;102105.06;5137467;27;19927;-40
2022/10/11 03:11:57;;;;;;;;;;;;;;;20.77;49.15;102116.16;5153147;27;19928;-39
2022/10/11 03:14:22;;;;;;;;;;;;;;;20.77;49.10;102118.91;5154075;27;20469;-40
2022/10/11 03:16:48;;;;;;;;;;;;;;;20.78;49.02;102120.59;5138191;27;19929;-40
2022/10/11 03:19:14;;;;;;;;;;;;;;;20.77;49.05;102121.69;5152788;27;19930;-39
2022/10/11 03:21:44;;;;;;;;;;;;;;;20.76;49.18;102115.28;5149656;27;19938;-39
2022/10/11 03:24:10;;;;;;;;;;;;;;;20.77;49.02;102122.53;5142552;27;19923;-40
2022/10/11 03:26:35;;;;;;;;;;;;;;;20.77;49.07;102125.28;5141816;27;19927;-40
2022/10/11 03:29:01;;;;;;;;;;;;;;;20.77;49.11;102125.28;5142932;27;20515;-40
2022/10/11 03:31:26;;;;;;;;;;;;;;;20.77;49.15;102124.47;5141198;27;19963;-40
2022/10/11 03:33:52;;;;;;;;;;;;;;;20.77;49.10;102133.59;5143344;27;19931;-40
2022/10/11 03:36:17;;;;;;;;;;;;;;;20.77;49.21;102136.38;5141660;27;20303;-40
2022/10/11 03:38:43;;;;;;;;;;;;;;;20.77;49.27;102133.59;5140362;27;19924;-40
2022/10/11 03:41:08;;;;;;;;;;;;;;;20.77;49.14;102136.38;5138265;27;19934;-40
2022/10/11 03:43:34;;;;;;;;;;;;;;;20.77;49.16;102136.38;5138642;27;20364;-39
2022/10/11 03:46:00;;;;;;;;;;;;;;;20.77;49.06;102141.06;5137954;27;19951;-39
2022/10/11 03:48:25;;;;;;;;;;;;;;;20.77;49.24;102139.13;5142670;27;19923;-40
2022/10/11 03:50:51;;;;;;;;;;;;;;;20.76;49.04;102140.19;5141031;27;19978;-40
2022/10/11 03:53:16;;;;;;;;;;;;;;;20.77;49.16;102133.59;5137445;27;19935;-39
2022/10/11 03:55:42;;;;;;;;;;;;;;;20.77;49.25;102138.31;5139489;27;19927;-39
2022/10/11 03:58:08;;;;;;;;;;;;;;;20.77;49.02;102141.91;5141438;27;19927;-39
2022/10/11 04:00:33;;;;;;;;;;;;;;;20.76;49.04;102140.19;5124311;27;19935;-40
2022/10/11 04:02:59;;;;;;;;;;;;;;;20.77;49.09;102141.91;5121432;27;19954;-40
2022/10/11 04:05:25;;;;;;;;;;;;;;;20.77;49.02;102143.84;5142774;27;19923;-39
2022/10/11 04:07:50;;;;;;;;;;;;;;;20.77;49.19;102143.84;5139165;27;19923;-40
2022/10/11 04:10:16;;;;;;;;;;;;;;;20.77;49.04;102143.84;5143045;27;19924;-39
2022/10/11 04:12:42;;;;;;;;;;;;;;;20.77;49.08;102149.38;5122097;27;19928;-39
2022/10/11 04:15:07;;;;;;;;;;;;;;;20.77;49.02;102154.91;5121134;27;19942;-39
2022/10/11 04:17:33;;;;;;;;;;;;;;;20.77;49.25;102149.38;5141105;27;19923;-39
2022/10/11 04:19:58;;;;;;;;;;;;;;;20.78;49.02;102156.56;5141420;27;19927;-40
2022/10/11 04:22:24;;;;;;;;;;;;;;;20.77;49.12;102161.28;5140071;27;19923;-39
2022/10/11 04:24:49;;;;;;;;;;;;;;;20.77;49.01;102163.22;5141059;27;19969;-39
2022/10/11 04:27:15;;;;;;;;;;;;;;;20.77;48.97;102155.75;5139437;27;19927;-40
2022/10/11 04:29:40;;;;;;;;;;;;;;;20.77;49.11;102157.69;5141711;27;20286;-39
2022/10/11 04:32:06;;;;;;;;;;;;;;;20.77;49.21;102165.97;5137000;27;19924;-40
2022/10/11 04:34:31;;;;;;;;;;;;;;;20.77;49.09;102171.53;5139962;27;19923;-40
2022/10/11 04:36:57;;;;;;;;;;;;;;;20.76;49.04;102162.34;5140804;27;20046;-39
2022/10/11 04:39:23;;;;;;;;;;;;;;;20.76;49.06;102165.13;5137037;27;19930;-39
2022/10/11 04:41:48;;;;;;;;;;;;;;;20.77;49.17;102169.59;5139408;27;19938;-39
2022/10/11 04:44:14;;;;;;;;;;;;;;;20.77;49.09;102171.53;5138637;27;19924;-40
2022/10/11 04:46:39;;;;;;;;;;;;;;;20.77;49.10;102166.81;5137265;27;19930;-40
2022/10/11 04:49:05;;;;;;;;;;;;;;;20.76;48.97;102165.13;5137909;27;19992;-39
2022/10/11 04:51:32;;;;;;;;;;;;;;;20.76;49.04;102170.66;5140121;27;19931;-40
2022/10/11 04:53:58;;;;;;;;;;;;;;;20.77;48.97;102171.53;5140996;27;20080;-39
2022/10/11 04:56:23;;;;;;;;;;;;;;;20.77;49.08;102177.88;5139798;27;19931;-40
2022/10/11 04:58:52;;;;;;;;;;;;;;;20.77;49.09;102177.06;5141058;27;19938;-40
2022/10/11 05:01:18;;;;;;;;;;;;;;;20.77;49.09;102180.66;5138427;27;20026;-40
2022/10/11 05:03:44;;;;;;;;;;;;;;;20.77;49.14;102179.81;5141316;27;19931;-40
2022/10/11 05:06:09;;;;;;;;;;;;;;;20.77;49.02;102182.59;5138331;27;19968;-39
2022/10/11 05:08:35;;;;;;;;;;;;;;;20.77;49.02;102185.38;5141746;27;19923;-40
2022/10/11 05:11:02;;;;;;;;;;;;;;;20.77;49.01;102196.44;5139618;27;20023;-39
2022/10/11 05:13:28;;;;;;;;;;;;;;;20.77;49.14;102190.91;5125961;27;20442;-39
2022/10/11 05:15:54;;;;;;;;;;;;;;;20.77;49.11;102194.50;5141071;27;19927;-39
2022/10/11 05:18:19;;;;;;;;;;;;;;;20.76;49.00;102184.50;5123608;27;20290;-39
2022/10/11 05:20:45;;;;;;;;;;;;;;;20.76;48.97;102198.34;5138696;27;19927;-39
2022/10/11 05:23:11;;;;;;;;;;;;;;;20.76;49.15;102195.56;5116108;27;19934;-39
2022/10/11 05:25:36;;;;;;;;;;;;;;;20.77;49.02;102194.50;5139194;27;19938;-39
2022/10/11 05:28:02;;;;;;;;;;;;;;;20.77;49.10;102202.81;5135178;27;19987;-40
2022/10/11 05:30:27;;;;;;;;;;;;;;;20.77;49.30;102197.28;5138489;27;19931;-40
2022/10/11 05:32:53;;;;;;;;;;;;;;;20.77;48.97;102196.44;5129827;28;20317;-39
2022/10/11 05:35:18;;;;;;;;;;;;;;;20.77;49.08;102208.34;5138140;27;19934;-39
2022/10/11 05:37:44;;;;;;;;;;;;;;;20.78;48.97;102206.41;5138903;27;20012;-39
2022/10/11 05:40:10;;;;;;;;;;;;;;;20.77;49.10;102207.50;5135761;27;19946;-39
2022/10/11 05:42:35;;;;;;;;;;;;;;;20.76;48.98;102206.66;5140147;27;19923;-39
2022/10/11 05:45:01;;;;;;;;;;;;;;;20.77;48.95;102216.66;5137231;27;19927;-39
2022/10/11 05:47:27;;;;;;;;;;;;;;;20.76;49.09;102212.19;5136769;27;19923;-40
2022/10/11 05:49:52;;;;;;;;;;;;;;;20.77;48.98;102218.59;5138205;27;19980;-39
2022/10/11 05:52:20;;;;;;;;;;;;;;;20.78;48.93;102225.78;5140782;27;20352;-39
2022/10/11 05:54:47;;;;;;;;;;;;;;;20.77;48.95;102224.13;5140936;27;20224;-40
2022/10/11 05:57:12;;;;;;;;;;;;;;;20.76;48.98;102233.50;5139477;27;20017;-39
2022/10/11 05:59:38;;;;;;;;;;;;;;;20.76;49.03;102231.56;5140056;27;19947;-40
2022/10/11 06:02:03;;;;;;;;;;;;;;;20.77;49.00;102241.56;5134940;27;19923;-39
2022/10/11 06:04:29;;;;;;;;;;;;;;;20.76;49.12;102233.50;5136347;27;19931;-39
2022/10/11 06:06:55;;;;;;;;;;;;;;;20.76;48.88;102237.09;5136294;27;20402;-40
2022/10/11 06:09:20;;;;;;;;;;;;;;;20.77;49.08;102235.19;5134872;27;19950;-39
2022/10/11 06:11:46;;;;;;;;;;;;;;;20.77;49.00;102236.03;5141372;27;19941;-40
2022/10/11 06:14:11;;;;;;;;;;;;;;;20.77;49.15;102232.44;5138758;27;19923;-39
2022/10/11 06:16:37;;;;;;;;;;;;;;;20.77;48.88;102237.97;5131189;27;19972;-39
2022/10/11 06:19:03;;;;;;;;;;;;;;;20.76;48.89;102241.81;5137398;27;19930;-39
2022/10/11 06:21:28;;;;;;;;;;;;;;;20.76;49.11;102241.81;5123393;27;20290;-39
2022/10/11 06:23:54;;;;;;;;;;;;;;;20.77;48.95;102240.75;5138298;27;19932;-39
2022/10/11 06:26:26;;;;;;;;;;;;;;;20.77;48.88;102243.50;5144254;27;19937;-39
2022/10/11 06:28:52;;;;;;;;;;;;;;;20.76;49.03;102253.72;5123958;27;19924;-39
2022/10/11 06:31:18;;;;;;;;;;;;;;;20.77;49.17;102257.34;5139178;27;20271;-39
2022/10/11 06:33:43;;;;;;;;;;;;;;;20.77;49.01;102258.19;5138321;27;19938;-39
2022/10/11 06:36:10;;;;;;;;;;;;;;;20.76;49.15;102261.19;5134809;27;19927;-40
2022/10/11 06:38:35;;;;;;;;;;;;;;;20.77;48.96;102260.94;5138567;27;20438;-39
2022/10/11 06:41:07;;;;;;;;;;;;;;;20.76;48.96;102261.19;5118482;27;20389;-39
2022/10/11 06:43:33;;;;;;;;;;;;;;;20.77;49.10;102268.41;5140697;27;19969;-40
2022/10/11 06:45:58;;;;;;;;;;;;;;;20.76;49.08;102273.09;5139789;27;19931;-39
2022/10/11 06:48:24;;;;;;;;;;;;;;;20.76;48.91;102264.78;5138211;27;20385;-39
2022/10/11 06:50:50;;;;;;;;;;;;;;;20.75;48.94;102274.19;5138079;27;20367;-39
2022/10/11 06:53:26;;;;;;;;;;;;;;;20.76;48.93;102286.09;5139475;27;20406;-40
2022/10/11 06:55:51;;;;;;;;;;;;;;;20.77;48.99;102283.09;5140101;27;19931;-40
2022/10/11 06:58:17;;;;;;;;;;;;;;;20.76;48.96;102288.88;5141236;27;19968;-40
2022/10/11 07:00:42;;;;;;;;;;;;;;;20.76;48.88;102286.94;5140608;27;20379;-40
2022/10/11 07:03:08;;;;;;;;;;;;;;;20.76;48.96;102289.69;5141384;27;19923;-40
2022/10/11 07:05:34;;;;;;;;;;;;;;;20.77;48.91;102290.56;5141591;27;19931;-40
2022/10/11 07:08:00;;;;;;;;;;;;;;;20.75;49.03;102296.34;5139616;27;19953;-39
2022/10/11 07:10:25;;;;;;;;;;;;;;;20.76;48.90;102299.94;5119037;27;19991;-39
2022/10/11 07:12:51;;;;;;;;;;;;;;;20.76;49.05;102303.53;5140041;27;20386;-39
2022/10/11 07:15:16;;;;;;;;;;;;;;;20.77;48.87;102305.25;5139778;27;20597;-39
2022/10/11 07:17:42;;;;;;;;;;;;;;;20.75;49.05;102304.66;5142369;27;21121;-39
2022/10/11 07:20:08;;;;;;;;;;;;;;;20.76;48.91;102306.31;5142903;27;19930;-39
2022/10/11 07:22:33;;;;;;;;;;;;;;;20.76;49.01;102300.78;5139404;27;20017;-39
2022/10/11 07:24:59;;;;;;;;;;;;;;;20.77;48.93;102312.72;5140673;27;19937;-39
2022/10/11 07:27:25;;;;;;;;;;;;;;;20.77;48.91;102315.50;5148231;27;19923;-39
2022/10/11 07:29:50;;;;;;;;;;;;;;;20.76;48.94;102322.09;5142709;27;19930;-40
2022/10/11 07:32:16;;;;;;;;;;;;;;;20.77;48.95;102323.78;5137243;27;19976;-40
2022/10/11 07:34:41;;;;;;;;;;;;;;;20.76;48.94;102331.22;5138091;27;20426;-40
2022/10/11 07:37:07;;;;;;;;;;;;;;;20.76;48.94;102324.88;5142376;27;20490;-40
2022/10/11 07:39:32;;;;;;;;;;;;;;;20.76;48.85;102331.22;5137356;27;19931;-39
2022/10/11 07:41:58;;;;;;;;;;;;;;;20.76;48.94;102325.69;5145059;27;19969;-40
2022/10/11 07:44:24;;;;;;;;;;;;;;;20.77;49.03;102332.09;5142763;27;19927;-39
2022/10/11 07:46:49;;;;;;;;;;;;;;;20.76;48.93;102324.88;5141548;27;19985;-39
2022/10/11 07:49:15;;;;;;;;;;;;;;;20.76;48.90;102330.41;5119432;27;19980;-39
2022/10/11 07:51:40;;;;;;;;;;;;;;;20.76;48.94;102322.94;5137884;27;19924;-39
2022/10/11 07:54:06;;;;;;;;;;;;;;;20.76;48.89;102322.09;5138330;27;21325;-39
2022/10/11 07:56:32;;;;;;;;;;;;;;;20.77;48.97;102329.31;5140939;27;20055;-39
2022/10/11 07:58:59;;;;;;;;;;;;;;;20.76;48.81;102328.47;5138988;27;19965;-39
2022/10/11 08:01:25;;;;;;;;;;;;;;;20.76;48.84;102330.41;5140694;27;20272;-40
2022/10/11 08:03:51;;;;;;;;;;;;;;;20.76;48.97;102334.00;5141221;27;19930;-39
2022/10/11 08:06:18;;;;;;;;;;;;;;;20.76;49.10;102336.78;5140160;27;19923;-39
2022/10/11 08:08:43;;;;;;;;;;;;;;;20.76;49.06;102339.53;5120491;27;20425;-39
2022/10/11 08:11:09;;;;;;;;;;;;;;;20.77;48.92;102332.09;5117804;27;19928;-39
2022/10/11 08:13:35;;;;;;;;;;;;;;;20.77;48.89;102337.63;5119343;27;19923;-39
2022/10/11 08:16:00;;;;;;;;;;;;;;;20.75;48.80;102335.09;5141696;27;20012;-39
2022/10/11 08:18:26;;;;;;;;;;;;;;;20.77;49.03;102343.16;5139137;27;19923;-40
2022/10/11 08:20:51;;;;;;;;;;;;;;;20.76;48.98;102342.31;5138998;27;20252;-39
2022/10/11 08:23:17;;;;;;;;;;;;;;;20.76;48.96;102334.00;5140679;27;19931;-40
2022/10/11 08:25:44;;;;;;;;;;;;;;;20.77;48.91;102340.41;5125489;27;20310;-39
2022/10/11 08:28:14;;;;;;;;;;;;;;;20.76;48.88;102347.00;5123039;28;20033;-40
2022/10/11 08:30:45;;;;;;;;;;;;;;;20.76;48.85;102353.38;5125444;27;19934;-40
2022/10/11 08:33:11;;;;;;;;;;;;;;;20.76;48.86;102352.56;5122251;27;19938;-40
2022/10/11 08:35:36;;;;;;;;;;;;;;;20.76;48.93;102356.16;5139700;27;19923;-39
2022/10/11 08:38:02;;;;;;;;;;;;;;;20.77;48.86;102362.56;5138425;27;19979;-39
2022/10/11 08:40:27;;;;;;;;;;;;;;;20.75;48.89;102357.25;5139419;27;19930;-39
2022/10/11 08:43:04;;;;;;;;;;;;;;;20.77;48.96;102368.09;5136135;27;20018;-40
2022/10/11 08:45:31;;;;;;;;;;;;;;;20.76;49.02;102366.38;5138419;27;20026;-39
2022/10/11 08:48:07;;;;;;;;;;;;;;;20.76;48.97;102363.63;5141903;27;20278;-39
2022/10/11 08:50:33;;;;;;;;;;;;;;;20.76;48.83;102360.84;5117679;27;20039;-39
2022/10/11 08:53:02;;;;;;;;;;;;;;;20.76;48.93;102360.84;5140188;27;19931;-40
2022/10/11 08:55:43;;;;;;;;;;;;;;;20.76;48.79;102363.63;5140687;27;20014;-39
2022/10/11 08:58:11;;;;;;;;;;;;;;;20.76;49.01;102367.22;5143174;27;20018;-40
2022/10/11 09:00:37;;;;;;;;;;;;;;;20.75;48.86;102362.78;5120531;27;19959;-40
2022/10/11 09:03:22;;;;;;;;;;;;;;;20.75;48.83;102365.56;5139487;27;19924;-40
2022/10/11 09:05:51;;;;;;;;;;;;;;;20.76;48.78;102358.09;5124567;27;20061;-40
2022/10/11 09:08:24;;;;;;;;;;;;;;;20.77;48.95;102365.31;5138360;27;19963;-40
2022/10/11 09:10:58;;;;;;;;;;;;;;;20.75;48.83;102362.78;5140139;27;19974;-39
2022/10/11 09:13:43;;;;;;;;;;;;;;;20.76;48.93;102363.63;5136445;27;20022;-40
2022/10/11 09:16:15;;;;;;;;;;;;;;;20.75;48.80;102362.78;5123296;27;21617;-40
2022/10/11 09:18:45;;;;;;;;;;;;;;;20.77;48.87;102365.31;5141676;27;20086;-39
2022/10/11 09:21:16;;;;;;;;;;;;;;;20.76;48.94;102367.22;5143591;27;20026;-39
2022/10/11 09:23:44;;;;;;;;;;;;;;;20.75;48.93;102360.03;5118235;27;21073;-39
2022/10/11 09:26:11;;;;;;;;;;;;;;;20.76;48.80;102366.38;5141863;27;20430;-39
2022/10/11 09:28:42;;;;;;;;;;;;;;;20.77;48.88;102368.94;5140642;27;19954;-39
2022/10/11 09:31:08;;;;;;;;;;;;;;;20.76;48.88;102369.16;5138102;27;19931;-40
2022/10/11 09:33:49;;;;;;;;;;;;;;;20.76;48.89;102360.84;5125642;27;20410;-40
2022/10/11 09:36:24;;;;;;;;;;;;;;;20.75;48.76;102368.31;5119764;27;20374;-39
2022/10/11 09:38:53;;;;;;;;;;;;;;;20.76;48.93;102369.16;5120243;27;20013;-39
2022/10/11 09:41:22;;;;;;;;;;;;;;;20.76;48.86;102364.44;5118039;27;20380;-38
2022/10/11 09:43:48;;;;;;;;;;;;;;;20.76;48.85;102367.22;5144369;27;20172;-39
2022/10/11 09:46:16;;;;;;;;;;;;;;;20.75;48.80;102364.72;5118226;27;20027;-39
2022/10/11 09:48:42;;;;;;;;;;;;;;;20.76;48.78;102363.63;5119243;27;19970;-39
2022/10/11 09:51:11;;;;;;;;;;;;;;;20.76;48.77;102367.22;5139009;27;19987;-39
2022/10/11 09:53:56;;;;;;;;;;;;;;;20.75;48.73;102361.97;5138602;27;20397;-39
2022/10/11 09:56:23;;;;;;;;;;;;;;;20.75;48.81;102362.78;5123432;27;20199;-39
2022/10/11 09:58:48;;;;;;;;;;;;;;;20.75;48.73;102371.09;5121908;27;19966;-40
2022/10/11 10:01:21;;;;;;;;;;;;;;;20.76;48.77;102370.00;5136588;27;20319;-40
2022/10/11 10:03:47;;;;;;;;;;;;;;;20.75;48.90;102375.81;5138847;27;20284;-39
2022/10/11 10:06:14;;;;;;;;;;;;;;;20.76;48.86;102369.16;5139556;27;19935;-39
2022/10/11 10:08:41;;;;;;;;;;;;;;;20.75;48.97;102375.81;5140242;27;19974;-39
2022/10/11 10:11:08;;;;;;;;;;;;;;;20.75;48.93;102379.41;5139319;27;20018;-39
2022/10/11 10:16:25;;;;;;;;;;;;;;;20.76;48.81;102374.69;5162494;27;19941;-36
2022/10/11 10:18:53;;;;;;;;;;;;;;;20.76;48.86;102381.06;5134824;27;19934;-37
2022/10/11 10:21:23;;;;;;;;;;;;;;;20.76;48.79;102383.00;5131816;27;19966;-37
2022/10/11 10:23:50;;;;;;;;;;;;;;;20.76;49.00;102383.84;5134739;27;20005;-37
2022/10/11 10:26:18;;;;;;;;;;;;;;;20.76;48.81;102383.00;5133137;27;20231;-37
2022/10/11 10:29:01;;;;;;;;;;;;;;;20.76;48.93;102380.22;5135181;27;20006;-37
2022/10/11 10:31:29;;;;;;;;;;;;;;;20.75;48.92;102387.72;5154017;27;19924;-37
2022/10/11 10:33:55;;;;;;;;;;;;;;;20.76;48.85;102380.22;5148561;27;19930;-40
2022/10/11 10:36:22;;;;;;;;;;;;;;;20.75;48.81;102382.16;5147246;27;19931;-39
2022/10/11 10:38:50;;;;;;;;;;;;;;;20.76;48.86;102374.69;5149435;27;19974;-40
2022/10/11 10:41:17;;;;;;;;;;;;;;;20.75;48.80;102376.63;5126640;27;20101;-39
2022/10/11 10:43:44;;;;;;;;;;;;;;;20.75;48.96;102373.88;5129922;27;19950;-40
2022/10/11 10:48:48;;;;;;;;;;;;;;;20.76;48.84;102367.22;5169554;27;19925;-37
2022/10/11 10:51:43;;;;;;;;;;;;;;;20.76;48.95;102369.16;5141569;27;19930;-36
2022/10/11 10:54:14;;;;;;;;;;;;;;;20.76;48.88;102371.94;5155791;27;20365;-37
2022/10/11 10:56:43;;;;;;;;;;;;;;;20.76;48.87;102366.38;5137885;27;20004;-37
2022/10/11 10:59:24;;;;;;;;;;;;;;;20.74;48.87;102374.97;5139749;27;19966;-40
2022/10/11 11:01:53;;;;;;;;;;;;;;;20.75;48.86;102368.31;5139933;27;19966;-40
2022/10/11 11:04:34;;;;;;;;;;;;;;;20.75;48.96;102362.78;5145191;27;19965;-40
2022/10/11 11:07:06;;;;;;;;;;;;;;;20.76;48.74;102367.22;5139898;27;19989;-40
2022/10/11 11:09:38;;;;;;;;;;;;;;;20.75;48.93;102365.56;5134823;27;19924;-39
2022/10/11 11:12:09;;;;;;;;;;;;;;;20.76;49.02;102364.44;5140489;27;19970;-39
2022/10/11 11:14:55;;;;;;;;;;;;;;;20.76;48.89;102366.38;5144662;27;20030;-39
2022/10/11 11:17:24;;;;;;;;;;;;;;;20.76;48.97;102355.31;5127288;27;20414;-39
2022/10/11 11:19:52;;;;;;;;;;;;;;;20.76;48.78;102356.16;5117066;27;19955;-40
2022/10/11 11:22:23;;;;;;;;;;;;;;;20.74;48.87;102358.34;5142891;27;19966;-39
2022/10/11 11:27:43;;;;;;;;;;;;;;;20.75;48.75;102357.25;5175661;27;19925;-36
2022/10/11 11:30:11;;;;;;;;;;;;;;;20.76;49.01;102360.84;5137570;27;20026;-37
2022/10/11 11:32:55;;;;;;;;;;;;;;;20.76;48.94;102349.78;5132921;27;20014;-37
2022/10/11 11:35:29;;;;;;;;;;;;;;;20.74;48.78;102350.06;5153369;27;20398;-37
2022/10/11 11:37:57;;;;;;;;;;;;;;;20.75;48.77;102346.19;5152063;27;19951;-38
2022/10/11 11:40:36;;;;;;;;;;;;;;;20.75;48.95;102346.19;5131786;27;20041;-40
2022/10/11 11:43:03;;;;;;;;;;;;;;;20.75;48.85;102343.41;5148456;27;19960;-38
2022/10/11 11:45:32;;;;;;;;;;;;;;;20.76;48.79;102335.94;5151154;27;20367;-37
2022/10/11 11:48:00;;;;;;;;;;;;;;;20.75;48.77;102335.09;5151155;27;19957;-39
2022/10/11 11:50:26;;;;;;;;;;;;;;;20.76;49.10;102331.22;5138267;27;19962;-39
2022/10/11 11:52:56;;;;;;;;;;;;;;;20.75;49.01;102329.56;5152610;27;19967;-39
2022/10/11 11:55:41;;;;;;;;;;;;;;;20.75;48.88;102328.72;5136826;27;20317;-39
2022/10/11 11:58:24;;;;;;;;;;;;;;;20.75;48.84;102321.25;5133333;27;19959;-39
2022/10/11 12:01:09;;;;;;;;;;;;;;;20.75;48.88;102321.25;5132920;27;19970;-40
2022/10/11 12:03:38;;;;;;;;;;;;;;;20.75;48.97;102329.56;5117558;27;21472;-39
2022/10/11 12:06:14;;;;;;;;;;;;;;;20.75;48.66;102321.25;5116652;27;19924;-39
2022/10/11 12:08:41;;;;;;;;;;;;;;;20.75;48.96;102318.50;5114501;27;19969;-39
2022/10/11 12:11:15;;;;;;;;;;;;;;;20.76;48.92;102311.03;5114135;27;19963;-39
2022/10/11 12:13:43;;;;;;;;;;;;;;;20.75;48.77;102314.88;5128598;27;20395;-40
2022/10/11 12:16:10;;;;;;;;;;;;;;;20.75;48.77;102309.34;5130482;27;20022;-40
2022/10/11 12:21:30;;;;;;;;;;;;;;;20.74;48.82;102305.75;5168018;27;19925;-37
2022/10/11 12:23:57;;;;;;;;;;;;;;;20.76;49.04;102305.47;5127068;27;19949;-37
2022/10/11 12:26:30;;;;;;;;;;;;;;;20.75;48.85;102299.13;5145164;27;20011;-39
2022/10/11 12:29:00;;;;;;;;;;;;;;;20.75;48.96;102295.50;5126170;27;20064;-40
2022/10/11 12:31:28;;;;;;;;;;;;;;;20.75;48.74;102289.97;5145231;27;20374;-40
2022/10/11 12:36:37;;;;;;;;;;;;;;;20.76;48.88;102272.25;5158293;27;19926;-36
2022/10/11 12:42:04;;;;;;;;;;;;;;;20.75;48.93;102276.13;5165819;27;20408;-37
2022/10/11 12:44:31;;;;;;;;;;;;;;;20.75;48.99;102270.59;5144297;27;19923;-37
2022/10/11 12:46:59;;;;;;;;;;;;;;;20.76;48.98;102275.03;5156090;27;19929;-39
2022/10/11 12:49:29;;;;;;;;;;;;;;;20.76;48.89;102272.25;5147730;27;19955;-40
2022/10/11 12:52:06;;;;;;;;;;;;;;;20.74;48.82;102269.75;5137293;27;19969;-40
2022/10/11 12:54:51;;;;;;;;;;;;;;;20.76;48.88;102263.94;5158888;27;19981;-39
2022/10/11 12:57:25;;;;;;;;;;;;;;;20.75;48.92;102268.66;5151066;27;20010;-39
2022/10/11 12:59:50;;;;;;;;;;;;;;;20.76;48.92;102263.94;5159298;27;19970;-39